createdAt,value
2018-09-28T00:02:29.368Z,10.56
2018-09-28T00:04:59.743Z,10.55
2018-09-28T00:07:29.984Z,10.44
2018-09-28T00:10:00.110Z,10.50
2018-09-28T00:12:30.068Z,10.43
2018-09-28T00:15:00.921Z,10.41
2018-09-28T00:17:31.268Z,10.42
2018-09-28T00:20:01.493Z,10.33
2018-09-28T00:22:31.612Z,10.40
2018-09-28T00:25:02.047Z,10.42
2018-09-28T00:27:32.245Z,10.45
2018-09-28T00:30:02.576Z,10.38
2018-09-28T00:32:32.722Z,10.33
2018-09-28T00:35:03.277Z,10.32
2018-09-28T00:37:33.804Z,10.34
2018-09-28T00:40:04.652Z,10.32
2018-09-28T00:42:35.182Z,10.23
2018-09-28T00:45:06.717Z,10.28
2018-09-28T00:47:36.876Z,10.25
2018-09-28T00:50:07.418Z,10.26
2018-09-28T00:52:37.648Z,10.26
2018-09-28T00:55:07.662Z,10.28
2018-09-28T00:57:38.761Z,10.24
2018-09-28T01:00:09.085Z,10.27
2018-09-28T01:02:39.517Z,10.14
2018-09-28T01:05:10.376Z,10.04
2018-09-28T01:07:40.573Z,10.10
2018-09-28T01:10:10.940Z,10.16
2018-09-28T01:12:40.862Z,10.15
2018-09-28T01:15:11.679Z,10.13
2018-09-28T01:17:41.630Z,10.14
2018-09-28T01:20:12.939Z,10.11
2018-09-28T01:22:43.879Z,10.09
2018-09-28T01:25:14.175Z,10.13
2018-09-28T01:27:44.671Z,10.17
2018-09-28T01:30:15.267Z,10.09
2018-09-28T01:32:45.429Z,10.12
2018-09-28T01:35:18.389Z,10.06
2018-09-28T01:37:48.654Z,10.08
2018-09-28T01:40:18.939Z,10.06
2018-09-28T01:42:49.263Z,10.00
2018-09-28T01:45:19.628Z,9.92
2018-09-28T01:47:50.158Z,9.93
2018-09-28T01:50:20.698Z,9.92
2018-09-28T01:52:50.738Z,9.84
2018-09-28T01:55:20.838Z,9.78
2018-09-28T01:57:52.134Z,9.81
2018-09-28T02:00:22.373Z,9.87
2018-09-28T02:02:52.670Z,9.89
2018-09-28T02:05:22.837Z,9.88
2018-09-28T02:07:52.734Z,9.94
2018-09-28T02:10:22.663Z,9.87
2018-09-28T02:12:53.381Z,9.87
2018-09-28T02:15:23.834Z,9.87
2018-09-28T02:17:54.285Z,9.90
2018-09-28T02:20:24.491Z,9.94
2018-09-28T02:22:55.534Z,9.92
2018-09-28T02:25:25.698Z,9.92
2018-09-28T02:27:55.937Z,10.02
2018-09-28T02:30:26.252Z,9.97
2018-09-28T02:32:57.500Z,10.08
2018-09-28T02:35:27.575Z,10.08
2018-09-28T02:37:57.695Z,10.13
2018-09-28T02:40:27.667Z,10.08
2018-09-28T02:42:57.437Z,10.14
2018-09-28T02:45:28.328Z,10.21
2018-09-28T02:47:58.665Z,10.31
2018-09-28T02:50:28.990Z,10.30
2018-09-28T02:52:59.349Z,10.32
2018-09-28T02:55:31.044Z,10.30
2018-09-28T02:58:04.202Z,10.32
2018-09-28T03:00:34.865Z,10.32
2018-09-28T03:04:35.055Z,10.23
2018-09-28T03:07:05.101Z,10.30
2018-09-28T03:09:35.223Z,10.32
2018-09-28T03:12:06.178Z,10.42
2018-09-28T03:14:36.259Z,10.52
2018-09-28T03:17:07.571Z,10.61
2018-09-28T03:19:37.638Z,10.67
2018-09-28T03:22:08.053Z,10.65
2018-09-28T03:24:38.185Z,10.71
2018-09-28T03:27:08.743Z,10.77
2018-09-28T03:29:39.044Z,10.75
2018-09-28T03:32:09.493Z,10.66
2018-09-28T03:34:39.503Z,10.53
2018-09-28T03:37:09.664Z,10.45
2018-09-28T03:39:40.612Z,10.46
2018-09-28T03:42:12.128Z,10.26
2018-09-28T03:44:42.314Z,10.31
2018-09-28T03:47:13.129Z,10.31
2018-09-28T03:49:43.048Z,10.24
2018-09-28T03:52:13.014Z,10.29
2018-09-28T03:54:43.833Z,10.30
2018-09-28T03:57:14.244Z,10.17
2018-09-28T03:59:45.361Z,10.09
2018-09-28T04:02:16.982Z,10.11
2018-09-28T04:04:47.446Z,10.19
2018-09-28T04:07:18.541Z,10.16
2018-09-28T04:09:49.651Z,10.24
2018-09-28T04:12:23.726Z,10.20
2018-09-28T04:14:54.141Z,10.23
2018-09-28T04:17:25.136Z,10.30
2018-09-28T04:19:55.485Z,10.27
2018-09-28T04:22:25.886Z,10.41
2018-09-28T04:24:56.305Z,10.38
2018-09-28T04:27:26.815Z,10.45
2018-09-28T04:29:56.869Z,10.56
2018-09-28T04:32:28.046Z,10.72
2018-09-28T04:34:58.124Z,10.88
2018-09-28T04:37:29.290Z,11.01
2018-09-28T04:39:59.419Z,11.11
2018-09-28T04:42:31.466Z,11.32
2018-09-28T04:45:01.763Z,11.51
2018-09-28T04:47:32.934Z,11.62
2018-09-28T04:50:03.213Z,11.69
2018-09-28T04:52:34.558Z,11.86
2018-09-28T04:55:04.739Z,12.19
2018-09-28T04:57:34.990Z,12.91
2018-09-28T05:00:06.063Z,13.38
2018-09-28T05:02:37.337Z,13.63
2018-09-28T05:05:09.820Z,13.78
2018-09-28T05:07:40.096Z,13.65
2018-09-28T05:10:10.043Z,13.67
2018-09-28T05:12:39.998Z,13.64
2018-09-28T05:15:10.380Z,13.66
2018-09-28T05:17:40.802Z,13.67
2018-09-28T05:20:10.710Z,13.70
2018-09-28T05:22:41.378Z,13.73
2018-09-28T05:25:12.664Z,13.92
2018-09-28T05:27:42.922Z,14.17
2018-09-28T05:30:13.822Z,14.51
2018-09-28T05:32:44.259Z,14.82
2018-09-28T05:35:14.346Z,15.17
2018-09-28T05:37:45.118Z,15.61
2018-09-28T05:40:15.237Z,16.11
2018-09-28T05:42:45.291Z,17.01
2018-09-28T05:45:18.021Z,17.08
2018-09-28T05:47:48.288Z,17.88
2018-09-28T05:50:18.521Z,18.79
2018-09-28T05:52:49.521Z,18.84
2018-09-28T05:55:19.966Z,19.26
2018-09-28T05:57:52.255Z,21.33
2018-09-28T06:00:27.152Z,22.73
2018-09-28T06:03:02.160Z,24.44
2018-09-28T06:05:34.326Z,23.88
2018-09-28T06:08:04.455Z,24.91
2018-09-28T06:10:34.847Z,25.96
2018-09-28T06:13:05.004Z,26.02
2018-09-28T06:15:35.384Z,26.41
2018-09-28T06:18:05.573Z,27.25
2018-09-28T06:20:35.854Z,27.58
2018-09-28T06:23:06.397Z,28.23
2018-09-28T06:25:36.410Z,28.31
2018-09-28T06:28:10.520Z,27.10
2018-09-28T06:30:40.680Z,28.00
2018-09-28T06:33:11.423Z,28.43
2018-09-28T06:35:41.746Z,27.07
2018-09-28T06:38:12.011Z,25.62
2018-09-28T06:40:42.023Z,23.82
2018-09-28T06:43:13.127Z,22.78
2018-09-28T06:45:43.194Z,21.01
2018-09-28T06:48:13.804Z,20.73
2018-09-28T06:50:44.113Z,19.65
2018-09-28T06:53:14.627Z,18.44
2018-09-28T06:55:44.786Z,18.05
2018-09-28T06:58:17.391Z,17.74
2018-09-28T07:00:47.678Z,17.47
2018-09-28T07:03:18.604Z,17.36
2018-09-28T07:05:48.860Z,17.36
2018-09-28T07:08:20.828Z,16.99
2018-09-28T07:10:52.657Z,16.99
2018-09-28T07:13:26.329Z,17.11
2018-09-28T07:15:56.692Z,17.20
2018-09-28T07:18:26.878Z,17.26
2018-09-28T07:20:56.992Z,17.24
2018-09-28T07:23:27.136Z,17.30
2018-09-28T07:25:58.352Z,17.35
2018-09-28T07:28:29.351Z,17.36
2018-09-28T07:30:59.664Z,17.37
2018-09-28T07:33:30.055Z,17.42
2018-09-28T07:36:00.405Z,17.43
2018-09-28T07:38:31.434Z,17.11
2018-09-28T07:41:01.516Z,16.98
2018-09-28T07:43:33.393Z,17.10
2018-09-28T07:46:03.917Z,17.09
2018-09-28T07:48:39.283Z,17.20
2018-09-28T07:51:10.190Z,17.27
2018-09-28T07:53:40.576Z,17.44
2018-09-28T07:56:10.699Z,17.57
2018-09-28T07:58:40.913Z,17.64
2018-09-28T08:01:11.222Z,17.71
2018-09-28T08:03:41.562Z,17.67
2018-09-28T08:06:11.823Z,17.51
2018-09-28T08:08:43.329Z,17.57
2018-09-28T08:11:13.361Z,17.72
2018-09-28T08:13:43.620Z,17.66
2018-09-28T08:16:13.711Z,17.58
2018-09-28T08:18:43.909Z,17.58
2018-09-28T08:21:14.910Z,17.62
2018-09-28T08:23:45.286Z,17.46
2018-09-28T08:26:15.540Z,17.43
2018-09-28T08:28:45.650Z,17.42
2018-09-28T08:31:16.355Z,17.42
2018-09-28T08:33:46.524Z,17.58
2018-09-28T08:36:16.672Z,17.65
2018-09-28T08:38:46.866Z,17.74
2018-09-28T08:41:17.051Z,17.64
2018-09-28T08:43:48.498Z,17.77
2018-09-28T08:46:19.081Z,17.87
2018-09-28T08:48:49.728Z,17.93
2018-09-28T08:51:20.178Z,17.87
2018-09-28T08:53:53.889Z,18.00
2018-09-28T08:56:25.322Z,18.04
2018-09-28T08:58:55.435Z,18.09
2018-09-28T09:01:25.717Z,18.04
2018-09-28T09:03:55.812Z,18.02
2018-09-28T09:06:25.976Z,18.00
2018-09-28T09:08:57.411Z,17.76
2018-09-28T09:11:27.749Z,17.96
2018-09-28T09:13:58.030Z,17.94
2018-09-28T09:16:28.309Z,17.96
2018-09-28T09:18:58.582Z,18.00
2018-09-28T09:21:28.691Z,18.04
2018-09-28T09:23:58.875Z,18.05
2018-09-28T09:26:30.405Z,18.15
2018-09-28T09:29:00.548Z,18.29
2018-09-28T09:31:30.931Z,18.14
2018-09-28T09:34:01.170Z,18.28
2018-09-28T09:36:31.772Z,18.30
2018-09-28T09:39:02.067Z,18.42
2018-09-28T09:41:32.347Z,18.22
2018-09-28T09:44:03.617Z,18.30
2018-09-28T09:46:33.929Z,18.34
2018-09-28T09:49:04.366Z,18.22
2018-09-28T09:51:34.409Z,18.01
2018-09-28T09:54:04.641Z,18.12
2018-09-28T09:56:34.822Z,18.01
2018-09-28T09:59:04.997Z,18.19
2018-09-28T10:01:39.853Z,18.25
2018-09-28T10:04:10.950Z,18.30
2018-09-28T10:06:40.930Z,18.32
2018-09-28T10:09:13.494Z,18.27
2018-09-28T10:11:43.722Z,18.25
2018-09-28T10:14:14.041Z,18.04
2018-09-28T10:16:44.193Z,17.99
2018-09-28T10:19:14.238Z,18.13
2018-09-28T10:21:44.531Z,18.22
2018-09-28T10:24:15.151Z,18.16
2018-09-28T10:26:45.071Z,18.30
2018-09-28T10:29:15.271Z,18.37
2018-09-28T10:31:46.027Z,18.35
2018-09-28T10:34:16.840Z,18.32
2018-09-28T10:36:46.903Z,18.35
2018-09-28T10:39:17.933Z,18.44
2018-09-28T10:41:48.134Z,18.34
2018-09-28T10:44:18.362Z,18.29
2018-09-28T10:46:48.592Z,18.33
2018-09-28T10:49:18.581Z,18.30
2018-09-28T10:51:48.944Z,18.35
2018-09-28T10:54:19.568Z,18.42
2018-09-28T10:56:49.834Z,18.30
2018-09-28T10:59:20.129Z,18.35
2018-09-28T11:01:57.046Z,18.43
2018-09-28T11:04:27.392Z,18.31
2018-09-28T11:06:57.943Z,18.23
2018-09-28T11:09:28.229Z,18.30
2018-09-28T11:11:58.388Z,18.24
2018-09-28T11:14:28.310Z,18.28
2018-09-28T11:16:58.501Z,18.20
2018-09-28T11:19:28.644Z,18.22
2018-09-28T11:21:58.903Z,18.21
2018-09-28T11:24:29.302Z,18.29
2018-09-28T11:26:59.639Z,18.30
2018-09-28T11:29:29.866Z,18.33
2018-09-28T11:31:59.833Z,18.25
2018-09-28T11:34:30.320Z,18.27
2018-09-28T11:37:00.604Z,18.20
2018-09-28T11:39:31.064Z,18.13
2018-09-28T11:42:01.203Z,18.13
2018-09-28T11:44:32.826Z,18.09
2018-09-28T11:47:03.114Z,18.06
2018-09-28T11:49:33.351Z,18.04
2018-09-28T11:52:03.520Z,18.01
2018-09-28T11:54:34.024Z,18.01
2018-09-28T11:57:04.166Z,18.07
2018-09-28T11:59:34.585Z,18.08
2018-09-28T12:02:08.700Z,18.10
2018-09-28T12:04:38.701Z,18.17
2018-09-28T12:07:09.172Z,18.05
2018-09-28T12:09:39.143Z,18.05
2018-09-28T12:12:10.054Z,18.00
2018-09-28T12:14:40.666Z,17.96
2018-09-28T12:17:10.824Z,18.03
2018-09-28T12:19:41.078Z,18.06
2018-09-28T12:22:11.291Z,18.06
2018-09-28T12:24:41.360Z,18.02
2018-09-28T12:27:11.549Z,18.09
2018-09-28T12:29:42.781Z,18.18
2018-09-28T12:32:13.255Z,18.02
2018-09-28T12:34:43.631Z,17.87
2018-09-28T12:37:13.743Z,17.86
2018-09-28T12:39:44.091Z,18.06
2018-09-28T12:42:15.482Z,18.09
2018-09-28T12:44:46.474Z,18.02
2018-09-28T12:47:16.807Z,18.01
2018-09-28T12:49:47.291Z,18.02
2018-09-28T12:52:17.492Z,18.01
2018-09-28T12:54:48.028Z,18.00
2018-09-28T12:57:18.336Z,17.96
2018-09-28T12:59:48.436Z,17.85
2018-09-28T13:02:19.393Z,17.76
2018-09-28T13:04:50.160Z,17.46
2018-09-28T13:07:22.139Z,17.40
2018-09-28T13:09:52.260Z,17.38
2018-09-28T13:12:22.697Z,17.54
2018-09-28T13:14:54.333Z,17.62
2018-09-28T13:17:24.402Z,17.48
2018-09-28T13:19:54.633Z,17.44
2018-09-28T13:22:24.867Z,17.48
2018-09-28T13:24:55.832Z,17.53
2018-09-28T13:27:25.884Z,17.63
2018-09-28T13:29:56.335Z,17.72
2018-09-28T13:32:26.767Z,17.68
2018-09-28T13:34:58.044Z,17.70
2018-09-28T13:37:28.224Z,17.48
2018-09-28T13:39:58.401Z,17.38
2018-09-28T13:42:29.470Z,17.40
2018-09-28T13:45:01.577Z,17.45
2018-09-28T13:47:32.962Z,17.55
2018-09-28T13:50:03.060Z,17.57
2018-09-28T13:52:33.304Z,17.65
2018-09-28T13:55:04.705Z,17.67
2018-09-28T13:57:34.858Z,17.65
2018-09-28T14:00:06.300Z,17.63
2018-09-28T14:02:38.066Z,17.58
2018-09-28T14:05:08.372Z,17.56
2018-09-28T14:07:39.390Z,17.59
2018-09-28T14:10:10.091Z,17.55
2018-09-28T14:12:40.400Z,17.51
2018-09-28T14:15:11.527Z,17.53
2018-09-28T14:17:41.771Z,17.45
2018-09-28T14:20:12.110Z,17.44
2018-09-28T14:22:42.388Z,17.33
2018-09-28T14:25:12.521Z,17.43
2018-09-28T14:27:44.217Z,17.49
2018-09-28T14:30:14.630Z,17.44
2018-09-28T14:32:45.056Z,17.36
2018-09-28T14:35:15.462Z,17.23
2018-09-28T14:37:45.800Z,17.27
2018-09-28T14:40:15.787Z,17.26
2018-09-28T14:42:46.101Z,17.18
2018-09-28T14:45:17.313Z,17.14
2018-09-28T14:47:47.539Z,17.08
2018-09-28T14:50:17.982Z,17.04
2018-09-28T14:52:48.221Z,16.99
2018-09-28T14:55:20.725Z,16.88
2018-09-28T14:57:50.918Z,16.86
2018-09-28T15:00:22.201Z,16.65
2018-09-28T15:02:52.242Z,16.37
2018-09-28T15:05:22.539Z,16.35
2018-09-28T15:07:53.441Z,16.33
2018-09-28T15:10:26.855Z,16.33
2018-09-28T15:12:57.302Z,16.14
2018-09-28T15:15:28.423Z,16.16
2018-09-28T15:17:59.503Z,16.14
2018-09-28T15:20:29.713Z,16.12
2018-09-28T15:22:59.738Z,15.95
2018-09-28T15:25:30.845Z,15.89
2018-09-28T15:28:01.223Z,15.89
2018-09-28T15:30:31.388Z,15.79
2018-09-28T15:33:01.286Z,15.77
2018-09-28T15:35:32.319Z,15.66
2018-09-28T15:38:02.547Z,15.68
2018-09-28T15:40:34.352Z,15.65
2018-09-28T15:43:04.588Z,15.61
2018-09-28T15:45:38.876Z,15.49
2018-09-28T15:48:09.460Z,15.43
2018-09-28T15:50:39.766Z,15.41
2018-09-28T15:53:10.547Z,15.34
2018-09-28T15:55:40.877Z,15.27
2018-09-28T15:58:11.231Z,15.26
2018-09-28T16:00:41.580Z,15.22
2018-09-28T16:03:12.214Z,15.15
2018-09-28T16:05:43.257Z,14.97
2018-09-28T16:08:13.736Z,15.00
2018-09-28T16:10:46.063Z,14.95
2018-09-28T16:13:16.265Z,14.95
2018-09-28T16:15:46.428Z,14.88
2018-09-28T16:18:17.549Z,14.83
2018-09-28T16:20:47.806Z,14.86
2018-09-28T16:23:19.127Z,14.82
2018-09-28T16:25:49.633Z,14.81
2018-09-28T16:28:20.550Z,14.80
2018-09-28T16:30:51.048Z,14.77
2018-09-28T16:33:24.113Z,14.68
2018-09-28T16:35:54.384Z,14.67
2018-09-28T16:38:24.719Z,14.66
2018-09-28T16:40:55.490Z,14.65
2018-09-28T16:43:25.683Z,14.61
2018-09-28T16:45:57.826Z,14.61
2018-09-28T16:48:27.744Z,14.56
2018-09-28T16:50:59.943Z,14.57
2018-09-28T16:53:31.092Z,14.59
2018-09-28T16:56:01.092Z,14.61
2018-09-28T16:58:30.930Z,14.61
2018-09-28T17:01:01.017Z,14.61
2018-09-28T17:03:31.283Z,14.63
2018-09-28T17:06:02.315Z,14.62
2018-09-28T17:08:33.725Z,14.60
2018-09-28T17:11:03.945Z,14.67
2018-09-28T17:13:35.261Z,14.68
2018-09-28T17:16:07.726Z,14.65
2018-09-28T17:18:37.546Z,14.66
2018-09-28T17:21:08.210Z,14.62
2018-09-28T17:23:38.924Z,14.58
2018-09-28T17:26:08.961Z,14.53
2018-09-28T17:28:40.015Z,14.48
2018-09-28T17:31:10.159Z,14.49
2018-09-28T17:33:40.305Z,14.45
2018-09-28T17:36:10.307Z,14.44
2018-09-28T17:38:41.068Z,14.37
2018-09-28T17:41:12.237Z,14.45
2018-09-28T17:43:46.011Z,14.52
2018-09-28T17:46:22.298Z,14.56
2018-09-28T17:48:52.735Z,14.54
2018-09-28T17:51:22.595Z,14.47
2018-09-28T17:53:52.507Z,14.28
2018-09-28T17:56:23.791Z,14.30
2018-09-28T17:58:54.087Z,14.28
2018-09-28T18:01:24.643Z,14.02
2018-09-28T18:03:55.981Z,13.83
2018-09-28T18:06:28.505Z,13.84
2018-09-28T18:08:59.181Z,13.84
2018-09-28T18:11:33.465Z,13.71
2018-09-28T18:14:03.594Z,13.64
2018-09-28T18:16:33.994Z,13.53
2018-09-28T18:19:04.154Z,13.52
2018-09-28T18:21:34.798Z,13.51
2018-09-28T18:24:05.119Z,13.60
2018-09-28T18:26:35.638Z,13.62
2018-09-28T18:29:06.440Z,13.58
2018-09-28T18:31:37.219Z,13.61
2018-09-28T18:34:08.340Z,13.56
2018-09-28T18:36:38.716Z,13.51
2018-09-28T18:39:10.499Z,13.55
2018-09-28T18:41:41.501Z,13.54
2018-09-28T18:44:11.811Z,13.56
2018-09-28T18:46:44.891Z,13.52
2018-09-28T18:49:16.508Z,13.50
2018-09-28T18:51:47.282Z,13.48
2018-09-28T18:54:17.723Z,13.46
2018-09-28T18:56:48.466Z,13.41
2018-09-28T18:59:18.803Z,13.34
2018-09-28T19:01:49.226Z,13.19
2018-09-28T19:04:20.604Z,13.17
2018-09-28T19:06:51.661Z,13.21
2018-09-28T19:09:22.160Z,13.13
2018-09-28T19:11:53.524Z,13.00
2018-09-28T19:14:23.813Z,12.99
2018-09-28T19:16:54.161Z,13.02
2018-09-28T19:19:25.488Z,13.08
2018-09-28T19:21:57.487Z,13.04
2018-09-28T19:24:27.904Z,13.04
2018-09-28T19:26:58.331Z,12.92
2018-09-28T19:29:28.480Z,13.01
2018-09-28T19:31:58.829Z,13.00
2018-09-28T19:34:30.503Z,12.96
2018-09-28T19:37:00.705Z,12.91
2018-09-28T19:39:32.326Z,12.91
2018-09-28T19:42:02.655Z,13.03
2018-09-28T19:44:32.908Z,12.95
2018-09-28T19:47:03.142Z,12.92
2018-09-28T19:49:34.305Z,12.90
2018-09-28T19:52:04.519Z,12.80
2018-09-28T19:54:34.644Z,12.83
2018-09-28T19:57:05.164Z,12.79
2018-09-28T19:59:35.383Z,12.74
2018-09-28T20:02:07.249Z,12.86
2018-09-28T20:04:37.759Z,12.87
2018-09-28T20:07:08.757Z,12.95
2018-09-28T20:09:39.020Z,12.94
2018-09-28T20:12:09.554Z,12.90
2018-09-28T20:14:39.860Z,12.92
2018-09-28T20:17:11.108Z,12.87
2018-09-28T20:19:41.582Z,12.87
2018-09-28T20:22:13.629Z,12.79
2018-09-28T20:24:43.903Z,12.84
2018-09-28T20:27:15.650Z,12.86
2018-09-28T20:29:46.646Z,12.84
2018-09-28T20:32:17.122Z,12.89
2018-09-28T20:34:47.580Z,13.00
2018-09-28T20:37:17.799Z,13.14
2018-09-28T20:39:48.303Z,13.18
2018-09-28T20:42:20.021Z,13.25
2018-09-28T20:44:49.796Z,13.25
2018-09-28T20:47:19.535Z,13.24
2018-09-28T20:49:49.320Z,13.26
2018-09-28T20:52:19.312Z,13.17
2018-09-28T20:54:50.001Z,13.16
2018-09-28T20:57:20.224Z,13.24
2018-09-28T20:59:50.510Z,13.34
2018-09-28T21:02:20.677Z,13.33
2018-09-28T21:04:51.917Z,13.38
2018-09-28T21:07:23.295Z,13.45
2018-09-28T21:09:53.877Z,13.46
2018-09-28T21:12:24.233Z,13.44
2018-09-28T21:14:54.520Z,13.37
2018-09-28T21:17:24.789Z,13.36
2018-09-28T21:19:55.114Z,13.30
2018-09-28T21:22:25.334Z,13.36
2018-09-28T21:24:55.574Z,13.34
2018-09-28T21:27:26.446Z,13.30
2018-09-28T21:29:56.252Z,13.41
2018-09-28T21:32:25.965Z,13.42
2018-09-28T21:34:56.281Z,13.45
2018-09-28T21:37:26.378Z,13.36
2018-09-28T21:39:56.529Z,13.36
2018-09-28T21:42:26.961Z,13.39
2018-09-28T21:44:56.966Z,13.40
2018-09-28T21:47:27.238Z,13.43
2018-09-28T21:49:56.974Z,13.44
2018-09-28T21:52:26.621Z,13.39
2018-09-28T21:54:56.509Z,13.41
2018-09-28T21:57:26.460Z,13.45
2018-09-28T21:59:56.158Z,13.51
2018-09-28T22:02:26.342Z,13.52
2018-09-28T22:04:58.367Z,13.48
2018-09-28T22:07:28.971Z,13.59
2018-09-28T22:09:59.308Z,13.55
2018-09-28T22:12:29.554Z,13.55
2018-09-28T22:14:59.687Z,13.57
2018-09-28T22:17:30.043Z,13.51
2018-09-28T22:20:01.073Z,13.69
2018-09-28T22:22:31.087Z,13.67
2018-09-28T22:25:02.031Z,13.61
2018-09-28T22:27:32.017Z,13.67
2018-09-28T22:30:02.210Z,13.70
2018-09-28T22:32:32.318Z,13.72
2018-09-28T22:35:02.727Z,13.68
2018-09-28T22:37:32.781Z,13.71
2018-09-28T22:40:02.941Z,13.72
2018-09-28T22:42:34.129Z,13.84
2018-09-28T22:45:04.450Z,13.89
2018-09-28T22:47:34.527Z,13.90
2018-09-28T22:50:05.024Z,13.85
2018-09-28T22:52:35.290Z,13.77
2018-09-28T22:55:05.505Z,13.86
2018-09-28T22:57:36.818Z,13.91
2018-09-28T23:00:07.137Z,13.90
2018-09-28T23:02:37.483Z,13.91
2018-09-28T23:05:08.417Z,13.93
2018-09-28T23:07:38.679Z,14.06
2018-09-28T23:10:09.505Z,14.03
2018-09-28T23:12:39.686Z,14.14
2018-09-28T23:15:11.184Z,14.10
2018-09-28T23:31:23.617Z,14.13
2018-09-28T23:33:53.822Z,14.12
2018-09-28T23:36:24.036Z,14.10
2018-09-28T23:38:53.968Z,14.15
2018-09-28T23:41:24.451Z,14.24
2018-09-28T23:43:55.418Z,14.29
2018-09-28T23:46:26.356Z,14.34
2018-09-28T23:48:56.604Z,14.32
2018-09-28T23:51:26.809Z,14.35
2018-09-28T23:54:00.970Z,14.39
2018-09-28T23:56:32.023Z,14.38
2018-09-28T23:59:02.475Z,14.36
